METAR Data
IDs: Format: Raw Decoded Include TAF

Data at: 0653 UTC 23 Feb 2019

PAMD 230551Z AUTO 03014KT 10SM CLR 02/M12 A3027 RMK AO2 SLP241 T00171117 10033 20011 53024 FZRANO
PAMD 230451Z AUTO 04014G22KT 10SM CLR 01/M09 A3025 RMK AO2 SLP234 T00111094 FZRANO
PAMD 230351Z AUTO 03012KT 10SM CLR 01/M11 A3022 RMK AO2 SLP224 T00111111 FZRANO
PAMD 230251Z AUTO 03013G19KT 10SM CLR 02/M09 A3020 RMK AO2 SLP217 T00171089 52025 FZRANO
PAMD 230151Z AUTO 04013KT 10SM CLR 02/M09 A3017 RMK AO2 SLP208 T00221089 FZRANO
PAMD 230051Z AUTO 02012G16KT 10SM CLR 03/M08 A3015 RMK AO2 SLP201 T00281083
PAMD 222351Z AUTO 03010G17KT 10SM CLR 03/M08 A3013 RMK AO2 SLP192 T00331078 10033 20017 51024
PAMD 222251Z AUTO 01016G21KT 10SM CLR 03/M09 A3011 RMK AO2 SLP186 T00331094
PAMD 222151Z AUTO 36016G23KT 10SM CLR 03/M09 A3008 RMK AO2 PK WND 36027/2109 SLP176 T00281094
PAMD 222051Z AUTO 35017G27KT 10SM CLR 03/M09 A3005 RMK AO2 PK WND 36032/1954 SLP167 T00281089 53036
PAMD 221951Z AUTO 35021G29KT 10SM CLR 02/M09 A3001 RMK AO2 PK WND 35031/1857 SLP152 T00221089 FZRANO
PAMD 221851Z AUTO 34023G31KT 10SM CLR 02/M09 A2998 RMK AO2 PK WND 34031/1849 SLP143 T00221094 FZRANO
PAMD 221751Z AUTO 35022G30KT 10SM CLR 02/M08 A2995 RMK AO2 PK WND 34031/1712 SLP132 T00171083 10022 20011 51022 FZRANO
PAMD 221651Z AUTO 34022G33KT 10SM CLR 02/M09 A2992 RMK AO2 PK WND 34033/1644 SLP122 T00171094 FZRANO
PAMD 221551Z AUTO 34023G31KT 10SM CLR 02/M09 A2991 RMK AO2 PK WND 34032/1536 SLP119 T00171094 FZRANO
PAMD 221451Z AUTO 34020G29KT 10SM CLR 02/M10 A2988 RMK AO2 PK WND 33035/1401 SLP109 T00171100 53023 FZRANO
PAMD 221351Z AUTO 33026G37KT 10SM CLR 02/M08 A2985 RMK AO2 PK WND 32046/1331 SLP099 T00221083 FZRANO
PAMD 221251Z AUTO 33035G46KT 10SM CLR 02/M09 A2983 RMK AO2 PK WND 32046/1246 SLP090 T00221089 FZRANO
PAMD 221151Z AUTO 31032G39KT 10SM CLR 02/M06 A2981 RMK AO2 PK WND 32039/1148 SLP086 70033 T00221061 10033 20022 51012 FZRANO
PAMD 221051Z AUTO 32022G31KT 10SM CLR 03/M06 A2981 RMK AO2 PK WND 32033/1026 SLP086 T00281056
PAMD 220951Z AUTO 32024G32KT 10SM CLR 03/M05 A2979 RMK AO2 PK WND 32033/0922 SLP078 T00281050
PAMD 220851Z AUTO 32025G33KT 10SM CLR 03/M05 A2978 RMK AO2 PK WND 32037/0830 SLP074 T00281050 52033
PAMD 220751Z AUTO 32029G34KT 10SM CLR 03/M06 A2975 RMK AO2 PK WND 32037/0729 SLP063 T00281056 400390011
PAMD 220651Z AUTO 31030G34KT 10SM CLR 03/M06 A2971 RMK AO2 PK WND 32036/0640 SLP052 T00281056
PAMD 220551Z AUTO 31027G38KT 10SM CLR 03/M04 A2968 RMK AO2 PK WND 32038/0548 SLP041 T00281044 10039 20028 51036
PAMD 220451Z AUTO 31028G36KT 10SM CLR 03/M04 A2965 RMK AO2 PK WND 31039/0427 SLP031 T00331044
PAMD 220351Z AUTO 32032G41KT 10SM CLR 03/M04 A2962 RMK AO2 PK WND 32043/0332 SLP022 T00331044
PAMD 220251Z AUTO 31035G42KT 10SM CLR 03/M04 A2957 RMK AO2 PK WND 32044/0232 SLP005 T00331039 51020
PAMD 220151Z AUTO 31031G44KT 10SM CLR 03/M03 A2956 RMK AO2 PK WND 31044/0149 SLP002 T00331028
PAMD 220051Z AUTO 31034G40KT 10SM CLR 03/M03 A2953 RMK AO2 PK WND 32043/0024 SLP989 T00331028
PAMD 212351Z AUTO 31031G40KT 10SM CLR 04/M02 A2951 RMK AO2 PK WND 33042/2319 SLP985 60007 T00391022 10039 20017 53016
PAMD 212251Z AUTO 31034G42KT 10SM FEW033 04/M02 A2949 RMK AO2 PK WND 31042/2243 SLP977 T00391017
PAMD 212151Z AUTO 31032G37KT 10SM FEW028 SCT050 03/01 A2947 RMK AO2 PK WND 31038/2139 SLP971 T00330006
PAMD 212100Z AUTO 32028G33KT 10SM SCT013 OVC044 03/02 A2947 RMK AO2 PK WND 32033/2059
PAMD 212051Z AUTO 33025G35KT 10SM BKN013 OVC042 03/02 A2947 RMK AO2 PK WND 33035/2047 RAE35 SLP969 P0001 60007 T00330022 51025
PAMD 212026Z AUTO 33024G30KT 10SM -RA BKN012 BKN019 OVC037 02/02 A2946 RMK AO2 PK WND 33032/2011 P0001 FZRANO
PAMD 212024Z AUTO 33022G30KT 10SM -RA SCT009 OVC015 02/02 A2946 RMK AO2 PK WND 33032/2011 P0001 FZRANO
PAMD 211951Z AUTO 33022G29KT 7SM -RA OVC007 02/02 A2945 RMK AO2 PK WND 34031/1941 UPB18E20 SLP964 P0003 T00220017 FZRANO